sensor_id;sensor_type;location;lat;lon;timestamp;P1;durP1;ratioP1;P2;durP2;ratioP2
49582;SDS011;36329;48.816;44.624;2023-04-07T00:02:34;12.7;;;3.2;;
49582;SDS011;36329;48.816;44.624;2023-04-07T00:05:37;14.6;;;3.6;;
49582;SDS011;36329;48.816;44.624;2023-04-07T00:08:38;13;;;3.5;;
49582;SDS011;36329;48.816;44.624;2023-04-07T00:11:40;11.8;;;3.5;;
49582;SDS011;36329;48.816;44.624;2023-04-07T00:14:42;11.1;;;3.6;;
49582;SDS011;36329;48.816;44.624;2023-04-07T00:17:45;12.6;;;3.6;;
49582;SDS011;36329;48.816;44.624;2023-04-07T00:20:47;11.5;;;2.9;;
49582;SDS011;36329;48.816;44.624;2023-04-07T00:23:49;15.3;;;3.3;;
49582;SDS011;36329;48.816;44.624;2023-04-07T00:26:51;26.4;;;3.8;;
49582;SDS011;36329;48.816;44.624;2023-04-07T00:29:53;19.2;;;3.4;;
49582;SDS011;36329;48.816;44.624;2023-04-07T00:32:56;16.6;;;3.4;;
49582;SDS011;36329;48.816;44.624;2023-04-07T00:35:58;12.3;;;3.6;;
49582;SDS011;36329;48.816;44.624;2023-04-07T00:39:00;13;;;3.8;;
49582;SDS011;36329;48.816;44.624;2023-04-07T00:42:02;16.6;;;3.4;;
49582;SDS011;36329;48.816;44.624;2023-04-07T00:45:05;14.3;;;3.4;;
49582;SDS011;36329;48.816;44.624;2023-04-07T00:48:07;12.3;;;3.2;;
49582;SDS011;36329;48.816;44.624;2023-04-07T00:51:11;20.7;;;3.6;;
49582;SDS011;36329;48.816;44.624;2023-04-07T00:54:14;14.6;;;3.8;;
49582;SDS011;36329;48.816;44.624;2023-04-07T00:57:16;12.8;;;3.4;;
49582;SDS011;36329;48.816;44.624;2023-04-07T01:00:18;12;;;3.1;;
49582;SDS011;36329;48.816;44.624;2023-04-07T01:03:21;11.5;;;2.9;;
49582;SDS011;36329;48.816;44.624;2023-04-07T01:06:32;10.8;;;3.1;;
49582;SDS011;36329;48.816;44.624;2023-04-07T01:09:39;8.9;;;3;;
49582;SDS011;36329;48.816;44.624;2023-04-07T01:12:55;17;;;3.7;;
49582;SDS011;36329;48.816;44.624;2023-04-07T01:16:03;17.5;;;3.7;;
49582;SDS011;36329;48.816;44.624;2023-04-07T01:19:12;13.5;;;3.3;;
49582;SDS011;36329;48.816;44.624;2023-04-07T01:22:23;12;;;2.7;;
49582;SDS011;36329;48.816;44.624;2023-04-07T01:25:34;9;;;2.9;;
49582;SDS011;36329;48.816;44.624;2023-04-07T01:32:15;12.5;;;3;;
49582;SDS011;36329;48.816;44.624;2023-04-07T01:35:19;10.7;;;3.4;;
49582;SDS011;36329;48.816;44.624;2023-04-07T01:38:23;12.6;;;3;;
49582;SDS011;36329;48.816;44.624;2023-04-07T01:41:27;9.1;;;3.3;;
49582;SDS011;36329;48.816;44.624;2023-04-07T01:44:30;10.4;;;2.9;;
49582;SDS011;36329;48.816;44.624;2023-04-07T01:47:34;13.4;;;3.5;;
49582;SDS011;36329;48.816;44.624;2023-04-07T01:50:37;13.6;;;3.2;;
49582;SDS011;36329;48.816;44.624;2023-04-07T01:53:40;16.6;;;3.2;;
49582;SDS011;36329;48.816;44.624;2023-04-07T01:56:42;10.6;;;3.1;;
49582;SDS011;36329;48.816;44.624;2023-04-07T01:59:45;9.5;;;3.3;;
49582;SDS011;36329;48.816;44.624;2023-04-07T02:02:49;13.2;;;3.1;;
49582;SDS011;36329;48.816;44.624;2023-04-07T02:05:56;15.9;;;3;;
49582;SDS011;36329;48.816;44.624;2023-04-07T02:09:06;13.2;;;3.2;;
49582;SDS011;36329;48.816;44.624;2023-04-07T02:12:13;8.2;;;2.9;;
49582;SDS011;36329;48.816;44.624;2023-04-07T02:15:17;9.9;;;3;;
49582;SDS011;36329;48.816;44.624;2023-04-07T02:18:20;14;;;3.1;;
49582;SDS011;36329;48.816;44.624;2023-04-07T02:21:24;34.2;;;4;;
49582;SDS011;36329;48.816;44.624;2023-04-07T02:24:26;15.1;;;2.8;;
49582;SDS011;36329;48.816;44.624;2023-04-07T02:27:28;11.5;;;3;;
49582;SDS011;36329;48.816;44.624;2023-04-07T02:30:30;14.6;;;3.3;;
49582;SDS011;36329;48.816;44.624;2023-04-07T02:33:34;13.8;;;3.2;;
49582;SDS011;36329;48.816;44.624;2023-04-07T02:36:36;10.2;;;3.2;;
49582;SDS011;36329;48.816;44.624;2023-04-07T02:39:38;44.1;;;4.3;;
49582;SDS011;36329;48.816;44.624;2023-04-07T02:42:40;13.1;;;3.1;;
49582;SDS011;36329;48.816;44.624;2023-04-07T02:45:42;11.3;;;3.1;;
49582;SDS011;36329;48.816;44.624;2023-04-07T02:48:44;14.4;;;3.5;;
49582;SDS011;36329;48.816;44.624;2023-04-07T02:51:46;10.1;;;3.2;;
49582;SDS011;36329;48.816;44.624;2023-04-07T02:54:48;12.7;;;3.2;;
49582;SDS011;36329;48.816;44.624;2023-04-07T02:57:50;12;;;3.5;;
49582;SDS011;36329;48.816;44.624;2023-04-07T03:00:52;9.8;;;3.2;;
49582;SDS011;36329;48.816;44.624;2023-04-07T03:03:54;9.2;;;3.1;;
49582;SDS011;36329;48.816;44.624;2023-04-07T03:06:57;15.5;;;3.1;;
49582;SDS011;36329;48.816;44.624;2023-04-07T03:09:59;14.6;;;3.3;;
49582;SDS011;36329;48.816;44.624;2023-04-07T03:13:01;14.1;;;3.4;;
49582;SDS011;36329;48.816;44.624;2023-04-07T03:16:04;6.1;;;3;;
49582;SDS011;36329;48.816;44.624;2023-04-07T03:19:06;16.7;;;3.4;;
49582;SDS011;36329;48.816;44.624;2023-04-07T03:22:08;14.5;;;3.3;;
49582;SDS011;36329;48.816;44.624;2023-04-07T03:25:10;14.4;;;3.5;;
49582;SDS011;36329;48.816;44.624;2023-04-07T03:28:11;18.3;;;3.3;;
49582;SDS011;36329;48.816;44.624;2023-04-07T03:31:13;12.9;;;3.3;;
49582;SDS011;36329;48.816;44.624;2023-04-07T03:34:15;8.9;;;3;;
49582;SDS011;36329;48.816;44.624;2023-04-07T03:37:17;15.2;;;3.6;;
49582;SDS011;36329;48.816;44.624;2023-04-07T03:40:19;17.7;;;3.6;;
49582;SDS011;36329;48.816;44.624;2023-04-07T03:43:21;16.8;;;3.6;;
49582;SDS011;36329;48.816;44.624;2023-04-07T03:46:24;22.4;;;3.8;;
49582;SDS011;36329;48.816;44.624;2023-04-07T03:49:26;13.5;;;3.5;;
49582;SDS011;36329;48.816;44.624;2023-04-07T03:52:28;21.7;;;4;;
49582;SDS011;36329;48.816;44.624;2023-04-07T03:55:30;18.4;;;3.5;;
49582;SDS011;36329;48.816;44.624;2023-04-07T03:58:33;11.9;;;3.3;;
49582;SDS011;36329;48.816;44.624;2023-04-07T04:01:35;12;;;3.5;;
49582;SDS011;36329;48.816;44.624;2023-04-07T04:04:37;14.7;;;3.7;;
49582;SDS011;36329;48.816;44.624;2023-04-07T04:07:39;12.4;;;3.3;;
49582;SDS011;36329;48.816;44.624;2023-04-07T04:10:42;17.6;;;3.5;;
49582;SDS011;36329;48.816;44.624;2023-04-07T04:13:44;15.4;;;3.8;;
49582;SDS011;36329;48.816;44.624;2023-04-07T04:16:46;13.5;;;3.5;;
49582;SDS011;36329;48.816;44.624;2023-04-07T04:19:48;12.1;;;3.6;;
49582;SDS011;36329;48.816;44.624;2023-04-07T04:22:50;23.6;;;4;;
49582;SDS011;36329;48.816;44.624;2023-04-07T04:25:54;18.9;;;3.5;;
49582;SDS011;36329;48.816;44.624;2023-04-07T04:28:57;17.8;;;4;;
49582;SDS011;36329;48.816;44.624;2023-04-07T04:31:59;33.9;;;4.4;;
49582;SDS011;36329;48.816;44.624;2023-04-07T04:35:01;16.8;;;3.9;;
49582;SDS011;36329;48.816;44.624;2023-04-07T04:38:05;35.5;;;4.5;;
49582;SDS011;36329;48.816;44.624;2023-04-07T04:41:07;13.9;;;3.7;;
49582;SDS011;36329;48.816;44.624;2023-04-07T04:44:09;11.6;;;3.4;;
49582;SDS011;36329;48.816;44.624;2023-04-07T04:47:10;19.2;;;3.5;;
49582;SDS011;36329;48.816;44.624;2023-04-07T04:50:12;9.9;;;3.4;;
49582;SDS011;36329;48.816;44.624;2023-04-07T04:53:14;20.3;;;4.5;;
49582;SDS011;36329;48.816;44.624;2023-04-07T04:56:16;20.1;;;4.2;;
49582;SDS011;36329;48.816;44.624;2023-04-07T04:59:18;22.9;;;4;;
49582;SDS011;36329;48.816;44.624;2023-04-07T05:02:20;22.8;;;4;;
49582;SDS011;36329;48.816;44.624;2023-04-07T05:05:22;22.6;;;4.6;;
49582;SDS011;36329;48.816;44.624;2023-04-07T05:08:24;25.1;;;4.9;;
49582;SDS011;36329;48.816;44.624;2023-04-07T05:11:26;16.6;;;3.7;;
49582;SDS011;36329;48.816;44.624;2023-04-07T05:14:28;14.2;;;3.7;;
49582;SDS011;36329;48.816;44.624;2023-04-07T05:17:31;17.2;;;3.7;;
49582;SDS011;36329;48.816;44.624;2023-04-07T05:20:33;12.9;;;4.3;;
49582;SDS011;36329;48.816;44.624;2023-04-07T05:23:35;23;;;3.9;;
49582;SDS011;36329;48.816;44.624;2023-04-07T05:26:37;16.1;;;3.8;;
49582;SDS011;36329;48.816;44.624;2023-04-07T05:29:39;12.8;;;3.7;;
49582;SDS011;36329;48.816;44.624;2023-04-07T05:32:41;12.3;;;3.4;;
49582;SDS011;36329;48.816;44.624;2023-04-07T05:35:43;17;;;4.1;;
49582;SDS011;36329;48.816;44.624;2023-04-07T05:38:46;10.1;;;4.5;;
49582;SDS011;36329;48.816;44.624;2023-04-07T05:41:48;12.5;;;3.4;;
49582;SDS011;36329;48.816;44.624;2023-04-07T05:44:49;16.7;;;3.9;;
49582;SDS011;36329;48.816;44.624;2023-04-07T05:47:51;11.2;;;3.3;;
49582;SDS011;36329;48.816;44.624;2023-04-07T05:50:53;10;;;3.5;;
49582;SDS011;36329;48.816;44.624;2023-04-07T05:53:55;9.8;;;3.1;;
49582;SDS011;36329;48.816;44.624;2023-04-07T05:56:59;11.4;;;3.6;;
49582;SDS011;36329;48.816;44.624;2023-04-07T06:00:01;15.3;;;3.8;;
49582;SDS011;36329;48.816;44.624;2023-04-07T06:03:05;18.9;;;3.6;;
49582;SDS011;36329;48.816;44.624;2023-04-07T06:06:07;24.7;;;4.4;;
49582;SDS011;36329;48.816;44.624;2023-04-07T06:09:10;16.5;;;4.2;;
49582;SDS011;36329;48.816;44.624;2023-04-07T06:12:12;19.5;;;4;;
49582;SDS011;36329;48.816;44.624;2023-04-07T06:15:14;17.4;;;4;;
49582;SDS011;36329;48.816;44.624;2023-04-07T06:18:17;13.7;;;3.8;;
49582;SDS011;36329;48.816;44.624;2023-04-07T06:21:19;12.8;;;3.6;;
49582;SDS011;36329;48.816;44.624;2023-04-07T06:24:21;14.5;;;3.9;;
49582;SDS011;36329;48.816;44.624;2023-04-07T06:27:23;11.1;;;4;;
49582;SDS011;36329;48.816;44.624;2023-04-07T06:30:25;9.4;;;3.8;;
49582;SDS011;36329;48.816;44.624;2023-04-07T06:33:27;14.1;;;3.9;;
49582;SDS011;36329;48.816;44.624;2023-04-07T06:36:29;22.6;;;4.2;;
49582;SDS011;36329;48.816;44.624;2023-04-07T06:39:31;10.5;;;4.1;;
49582;SDS011;36329;48.816;44.624;2023-04-07T06:42:34;10.7;;;3.7;;
49582;SDS011;36329;48.816;44.624;2023-04-07T06:45:36;12.1;;;3.8;;
49582;SDS011;36329;48.816;44.624;2023-04-07T06:48:38;12.1;;;3.8;;
49582;SDS011;36329;48.816;44.624;2023-04-07T06:51:40;18.7;;;4.3;;
49582;SDS011;36329;48.816;44.624;2023-04-07T06:54:42;12.9;;;4.1;;
49582;SDS011;36329;48.816;44.624;2023-04-07T06:57:44;25;;;5.3;;
49582;SDS011;36329;48.816;44.624;2023-04-07T07:00:47;12;;;3.8;;
49582;SDS011;36329;48.816;44.624;2023-04-07T07:03:49;14.9;;;3.9;;
49582;SDS011;36329;48.816;44.624;2023-04-07T07:06:51;13.2;;;4;;
49582;SDS011;36329;48.816;44.624;2023-04-07T07:09:53;15.4;;;3.6;;
49582;SDS011;36329;48.816;44.624;2023-04-07T07:12:55;13.8;;;3.8;;
49582;SDS011;36329;48.816;44.624;2023-04-07T07:15:57;15.9;;;3.9;;
49582;SDS011;36329;48.816;44.624;2023-04-07T07:18:59;10.8;;;3.4;;
49582;SDS011;36329;48.816;44.624;2023-04-07T07:22:02;19.7;;;4.4;;
49582;SDS011;36329;48.816;44.624;2023-04-07T07:25:04;13.9;;;3.9;;
49582;SDS011;36329;48.816;44.624;2023-04-07T07:28:06;18.3;;;4.1;;
49582;SDS011;36329;48.816;44.624;2023-04-07T07:31:09;11.6;;;3.8;;
49582;SDS011;36329;48.816;44.624;2023-04-07T07:34:11;13.5;;;3.6;;
49582;SDS011;36329;48.816;44.624;2023-04-07T07:37:13;14.7;;;3.7;;
49582;SDS011;36329;48.816;44.624;2023-04-07T07:40:15;8.5;;;3.5;;
49582;SDS011;36329;48.816;44.624;2023-04-07T07:43:17;16.7;;;3.7;;
49582;SDS011;36329;48.816;44.624;2023-04-07T07:46:19;14.4;;;3.6;;
49582;SDS011;36329;48.816;44.624;2023-04-07T07:49:21;16.6;;;3.7;;
49582;SDS011;36329;48.816;44.624;2023-04-07T07:52:23;18.6;;;3.7;;
49582;SDS011;36329;48.816;44.624;2023-04-07T07:55:25;11;;;3.7;;
49582;SDS011;36329;48.816;44.624;2023-04-07T07:58:27;9.4;;;3.3;;
49582;SDS011;36329;48.816;44.624;2023-04-07T08:01:29;15.3;;;3.5;;
49582;SDS011;36329;48.816;44.624;2023-04-07T08:04:31;20.6;;;3.7;;
49582;SDS011;36329;48.816;44.624;2023-04-07T08:07:33;16.3;;;3.5;;
49582;SDS011;36329;48.816;44.624;2023-04-07T08:10:35;9.2;;;3.4;;
49582;SDS011;36329;48.816;44.624;2023-04-07T08:13:37;11.5;;;3.3;;
49582;SDS011;36329;48.816;44.624;2023-04-07T08:16:39;10.1;;;3.2;;
49582;SDS011;36329;48.816;44.624;2023-04-07T08:19:41;37;;;4.9;;
49582;SDS011;36329;48.816;44.624;2023-04-07T08:22:44;8.6;;;3.2;;
49582;SDS011;36329;48.816;44.624;2023-04-07T08:25:47;17.5;;;3.6;;
49582;SDS011;36329;48.816;44.624;2023-04-07T08:28:49;14.2;;;3.3;;
49582;SDS011;36329;48.816;44.624;2023-04-07T08:31:51;9.5;;;3.3;;
49582;SDS011;36329;48.816;44.624;2023-04-07T08:34:54;12.2;;;3.5;;
49582;SDS011;36329;48.816;44.624;2023-04-07T08:37:57;12.5;;;3.5;;
49582;SDS011;36329;48.816;44.624;2023-04-07T08:41:10;19;;;3.6;;
49582;SDS011;36329;48.816;44.624;2023-04-07T08:44:14;14.6;;;3.6;;
49582;SDS011;36329;48.816;44.624;2023-04-07T08:47:17;12.9;;;3.3;;
49582;SDS011;36329;48.816;44.624;2023-04-07T08:50:22;14.8;;;3.1;;
49582;SDS011;36329;48.816;44.624;2023-04-07T08:53:27;10.9;;;3.2;;
49582;SDS011;36329;48.816;44.624;2023-04-07T08:56:37;11.5;;;3.5;;
49582;SDS011;36329;48.816;44.624;2023-04-07T08:59:40;12.7;;;3.5;;
49582;SDS011;36329;48.816;44.624;2023-04-07T09:02:43;14;;;3.1;;
49582;SDS011;36329;48.816;44.624;2023-04-07T09:05:45;11;;;3.3;;
49582;SDS011;36329;48.816;44.624;2023-04-07T09:08:48;16.3;;;3.7;;
49582;SDS011;36329;48.816;44.624;2023-04-07T09:11:50;12.2;;;3.5;;
49582;SDS011;36329;48.816;44.624;2023-04-07T09:14:52;12.3;;;3.5;;
49582;SDS011;36329;48.816;44.624;2023-04-07T09:17:55;9.4;;;3.5;;
49582;SDS011;36329;48.816;44.624;2023-04-07T09:20:58;14.2;;;3.6;;
49582;SDS011;36329;48.816;44.624;2023-04-07T09:24:02;14.7;;;3.5;;
49582;SDS011;36329;48.816;44.624;2023-04-07T09:27:23;10.4;;;3.1;;
49582;SDS011;36329;48.816;44.624;2023-04-07T09:30:25;14.3;;;3.4;;
49582;SDS011;36329;48.816;44.624;2023-04-07T09:33:28;10.4;;;3.1;;
49582;SDS011;36329;48.816;44.624;2023-04-07T09:36:32;12.5;;;3.1;;
49582;SDS011;36329;48.816;44.624;2023-04-07T09:39:47;13.1;;;3.3;;
49582;SDS011;36329;48.816;44.624;2023-04-07T09:42:51;13.1;;;3;;
49582;SDS011;36329;48.816;44.624;2023-04-07T09:45:53;14.1;;;3;;
49582;SDS011;36329;48.816;44.624;2023-04-07T09:49:07;14;;;3.9;;
49582;SDS011;36329;48.816;44.624;2023-04-07T09:52:09;12.5;;;3.2;;
49582;SDS011;36329;48.816;44.624;2023-04-07T09:55:12;13.2;;;3.1;;
49582;SDS011;36329;48.816;44.624;2023-04-07T09:58:14;9.9;;;2.9;;
49582;SDS011;36329;48.816;44.624;2023-04-07T10:01:17;13.8;;;3.2;;
49582;SDS011;36329;48.816;44.624;2023-04-07T10:04:21;11.5;;;3.1;;
49582;SDS011;36329;48.816;44.624;2023-04-07T10:07:24;12.9;;;3.6;;
49582;SDS011;36329;48.816;44.624;2023-04-07T10:10:26;19.2;;;3.3;;
49582;SDS011;36329;48.816;44.624;2023-04-07T10:13:31;14.2;;;3.4;;
49582;SDS011;36329;48.816;44.624;2023-04-07T10:16:34;15.9;;;3.4;;
49582;SDS011;36329;48.816;44.624;2023-04-07T10:19:37;13.5;;;3.1;;
49582;SDS011;36329;48.816;44.624;2023-04-07T10:22:40;13.7;;;3.2;;
49582;SDS011;36329;48.816;44.624;2023-04-07T10:25:44;9.4;;;3.4;;
49582;SDS011;36329;48.816;44.624;2023-04-07T10:28:49;14;;;3.7;;
49582;SDS011;36329;48.816;44.624;2023-04-07T10:31:57;13.5;;;3.2;;
49582;SDS011;36329;48.816;44.624;2023-04-07T10:35:00;14.8;;;3.4;;
49582;SDS011;36329;48.816;44.624;2023-04-07T10:38:10;13.9;;;3.9;;
49582;SDS011;36329;48.816;44.624;2023-04-07T10:51:13;9.8;;;3.3;;
49582;SDS011;36329;48.816;44.624;2023-04-07T10:54:17;15.4;;;3.5;;
49582;SDS011;36329;48.816;44.624;2023-04-07T10:57:19;19.1;;;3.6;;
49582;SDS011;36329;48.816;44.624;2023-04-07T11:00:22;16.2;;;3.5;;
49582;SDS011;36329;48.816;44.624;2023-04-07T11:03:24;15;;;3.5;;
49582;SDS011;36329;48.816;44.624;2023-04-07T11:06:27;11.9;;;3.2;;
49582;SDS011;36329;48.816;44.624;2023-04-07T11:09:29;15.4;;;3.2;;
49582;SDS011;36329;48.816;44.624;2023-04-07T11:12:31;10.8;;;3;;
49582;SDS011;36329;48.816;44.624;2023-04-07T11:15:33;8.6;;;3;;
49582;SDS011;36329;48.816;44.624;2023-04-07T11:18:36;13.7;;;3.2;;
49582;SDS011;36329;48.816;44.624;2023-04-07T11:21:39;18.3;;;3.6;;
49582;SDS011;36329;48.816;44.624;2023-04-07T11:24:41;18.4;;;4.8;;
49582;SDS011;36329;48.816;44.624;2023-04-07T11:27:43;22.7;;;5.8;;
49582;SDS011;36329;48.816;44.624;2023-04-07T11:30:47;19.6;;;3.7;;
49582;SDS011;36329;48.816;44.624;2023-04-07T11:33:51;11.1;;;3.4;;
49582;SDS011;36329;48.816;44.624;2023-04-07T11:36:53;11.8;;;3.5;;
49582;SDS011;36329;48.816;44.624;2023-04-07T11:39:56;15.4;;;3.5;;
49582;SDS011;36329;48.816;44.624;2023-04-07T11:43:00;17.1;;;6;;
49582;SDS011;36329;48.816;44.624;2023-04-07T11:46:04;13.7;;;4;;
49582;SDS011;36329;48.816;44.624;2023-04-07T11:49:08;13.5;;;4.6;;
49582;SDS011;36329;48.816;44.624;2023-04-07T11:52:11;14.6;;;3.9;;
49582;SDS011;36329;48.816;44.624;2023-04-07T11:55:16;14.7;;;3.6;;
49582;SDS011;36329;48.816;44.624;2023-04-07T11:58:19;11.6;;;3.6;;
49582;SDS011;36329;48.816;44.624;2023-04-07T12:01:21;14.2;;;4;;
49582;SDS011;36329;48.816;44.624;2023-04-07T12:04:24;17.2;;;5.1;;
49582;SDS011;36329;48.816;44.624;2023-04-07T12:07:26;16.6;;;5.5;;
49582;SDS011;36329;48.816;44.624;2023-04-07T12:10:28;15.7;;;5.5;;
49582;SDS011;36329;48.816;44.624;2023-04-07T12:13:30;17.5;;;4.9;;
49582;SDS011;36329;48.816;44.624;2023-04-07T12:16:36;19.3;;;4.3;;
49582;SDS011;36329;48.816;44.624;2023-04-07T12:19:39;15.4;;;3.9;;
49582;SDS011;36329;48.816;44.624;2023-04-07T12:22:42;13.8;;;3.1;;
49582;SDS011;36329;48.816;44.624;2023-04-07T12:25:44;13.2;;;5;;
49582;SDS011;36329;48.816;44.624;2023-04-07T12:28:46;20.8;;;6.7;;
49582;SDS011;36329;48.816;44.624;2023-04-07T12:31:48;21.5;;;7.3;;
49582;SDS011;36329;48.816;44.624;2023-04-07T12:34:50;21.1;;;6.2;;
49582;SDS011;36329;48.816;44.624;2023-04-07T12:37:52;14.3;;;3.7;;
49582;SDS011;36329;48.816;44.624;2023-04-07T12:40:54;14.4;;;3.5;;
49582;SDS011;36329;48.816;44.624;2023-04-07T12:43:56;12;;;3.4;;
49582;SDS011;36329;48.816;44.624;2023-04-07T12:46:58;15.5;;;3.4;;
49582;SDS011;36329;48.816;44.624;2023-04-07T12:50:00;12.2;;;3.3;;
49582;SDS011;36329;48.816;44.624;2023-04-07T12:53:02;13.7;;;3.8;;
49582;SDS011;36329;48.816;44.624;2023-04-07T12:56:04;11.9;;;3.6;;
49582;SDS011;36329;48.816;44.624;2023-04-07T12:59:06;16.9;;;3.8;;
49582;SDS011;36329;48.816;44.624;2023-04-07T13:02:08;17.6;;;4.3;;
49582;SDS011;36329;48.816;44.624;2023-04-07T13:05:11;16.3;;;4.2;;
49582;SDS011;36329;48.816;44.624;2023-04-07T13:08:12;13.9;;;4.1;;
49582;SDS011;36329;48.816;44.624;2023-04-07T13:11:14;15.4;;;3.4;;
49582;SDS011;36329;48.816;44.624;2023-04-07T13:14:17;14.9;;;3.8;;
49582;SDS011;36329;48.816;44.624;2023-04-07T13:17:19;14.7;;;5.2;;
49582;SDS011;36329;48.816;44.624;2023-04-07T13:20:21;19.3;;;5.5;;
49582;SDS011;36329;48.816;44.624;2023-04-07T13:23:23;14.2;;;4.4;;
49582;SDS011;36329;48.816;44.624;2023-04-07T13:26:25;16.4;;;4.3;;
49582;SDS011;36329;48.816;44.624;2023-04-07T13:29:28;13.8;;;3.7;;
49582;SDS011;36329;48.816;44.624;2023-04-07T13:32:30;23.6;;;4.6;;
49582;SDS011;36329;48.816;44.624;2023-04-07T13:35:32;20.5;;;3.8;;
49582;SDS011;36329;48.816;44.624;2023-04-07T13:38:34;17.5;;;3.4;;
49582;SDS011;36329;48.816;44.624;2023-04-07T13:41:36;18.8;;;3.7;;
49582;SDS011;36329;48.816;44.624;2023-04-07T13:44:39;15.7;;;3.3;;
49582;SDS011;36329;48.816;44.624;2023-04-07T13:47:41;16.4;;;3.4;;
49582;SDS011;36329;48.816;44.624;2023-04-07T13:50:43;17;;;3.7;;
49582;SDS011;36329;48.816;44.624;2023-04-07T13:53:45;14.4;;;3.3;;
49582;SDS011;36329;48.816;44.624;2023-04-07T13:56:47;17.5;;;4.4;;
49582;SDS011;36329;48.816;44.624;2023-04-07T13:59:50;12.3;;;3.6;;
49582;SDS011;36329;48.816;44.624;2023-04-07T14:02:52;15.9;;;3.6;;
49582;SDS011;36329;48.816;44.624;2023-04-07T14:05:54;17;;;3.3;;
49582;SDS011;36329;48.816;44.624;2023-04-07T14:08:56;16.2;;;3.2;;
49582;SDS011;36329;48.816;44.624;2023-04-07T14:11:59;17.2;;;4.5;;
49582;SDS011;36329;48.816;44.624;2023-04-07T14:15:01;15.2;;;3.5;;
49582;SDS011;36329;48.816;44.624;2023-04-07T14:18:05;16.3;;;4.1;;
49582;SDS011;36329;48.816;44.624;2023-04-07T14:21:08;14.9;;;3.9;;
49582;SDS011;36329;48.816;44.624;2023-04-07T14:24:10;20.5;;;4;;
49582;SDS011;36329;48.816;44.624;2023-04-07T14:27:12;11.4;;;3.8;;
49582;SDS011;36329;48.816;44.624;2023-04-07T14:30:15;17.9;;;3.6;;
49582;SDS011;36329;48.816;44.624;2023-04-07T14:33:17;16.4;;;5.3;;
49582;SDS011;36329;48.816;44.624;2023-04-07T14:36:19;14.6;;;5.1;;
49582;SDS011;36329;48.816;44.624;2023-04-07T14:39:21;16.2;;;4.1;;
49582;SDS011;36329;48.816;44.624;2023-04-07T14:42:23;18.6;;;3.7;;
49582;SDS011;36329;48.816;44.624;2023-04-07T14:45:25;13.6;;;3.2;;
49582;SDS011;36329;48.816;44.624;2023-04-07T14:48:27;16.5;;;3.5;;
49582;SDS011;36329;48.816;44.624;2023-04-07T14:51:29;12.9;;;3.3;;
49582;SDS011;36329;48.816;44.624;2023-04-07T14:54:32;15.9;;;3.6;;
49582;SDS011;36329;48.816;44.624;2023-04-07T14:57:34;16.3;;;3.7;;
49582;SDS011;36329;48.816;44.624;2023-04-07T15:00:36;13.6;;;3.3;;
49582;SDS011;36329;48.816;44.624;2023-04-07T15:03:39;17.3;;;3.5;;
49582;SDS011;36329;48.816;44.624;2023-04-07T15:06:41;8.8;;;3.3;;
49582;SDS011;36329;48.816;44.624;2023-04-07T15:09:43;18.3;;;4.1;;
49582;SDS011;36329;48.816;44.624;2023-04-07T15:12:45;15.3;;;4.5;;
49582;SDS011;36329;48.816;44.624;2023-04-07T15:15:47;15.1;;;3.6;;
49582;SDS011;36329;48.816;44.624;2023-04-07T15:18:49;17;;;3.4;;
49582;SDS011;36329;48.816;44.624;2023-04-07T15:21:51;9.4;;;3.4;;
49582;SDS011;36329;48.816;44.624;2023-04-07T15:24:54;13.4;;;3.4;;
49582;SDS011;36329;48.816;44.624;2023-04-07T15:27:56;13.6;;;3.5;;
49582;SDS011;36329;48.816;44.624;2023-04-07T15:30:58;22.1;;;3.3;;
49582;SDS011;36329;48.816;44.624;2023-04-07T15:34:01;12.9;;;3.2;;
49582;SDS011;36329;48.816;44.624;2023-04-07T15:37:03;11.3;;;3.5;;
49582;SDS011;36329;48.816;44.624;2023-04-07T15:40:05;13.8;;;3.6;;
49582;SDS011;36329;48.816;44.624;2023-04-07T15:43:08;11.3;;;3.2;;
49582;SDS011;36329;48.816;44.624;2023-04-07T15:46:10;11.2;;;3.2;;
49582;SDS011;36329;48.816;44.624;2023-04-07T15:49:12;14.4;;;3.4;;
49582;SDS011;36329;48.816;44.624;2023-04-07T15:52:14;10.3;;;3.2;;
49582;SDS011;36329;48.816;44.624;2023-04-07T15:55:16;13.8;;;3.9;;
49582;SDS011;36329;48.816;44.624;2023-04-07T15:58:18;13.4;;;4.1;;
49582;SDS011;36329;48.816;44.624;2023-04-07T16:01:20;11.5;;;3.6;;
49582;SDS011;36329;48.816;44.624;2023-04-07T16:04:22;19.6;;;3.9;;
49582;SDS011;36329;48.816;44.624;2023-04-07T16:07:24;12;;;3.7;;
49582;SDS011;36329;48.816;44.624;2023-04-07T16:10:26;10.2;;;3.5;;
49582;SDS011;36329;48.816;44.624;2023-04-07T16:13:28;10.3;;;3.9;;
49582;SDS011;36329;48.816;44.624;2023-04-07T16:16:30;14.3;;;3.7;;
49582;SDS011;36329;48.816;44.624;2023-04-07T16:19:32;15.7;;;4.2;;
49582;SDS011;36329;48.816;44.624;2023-04-07T16:22:34;15.7;;;4.1;;
49582;SDS011;36329;48.816;44.624;2023-04-07T16:25:37;12.4;;;4.1;;
49582;SDS011;36329;48.816;44.624;2023-04-07T16:28:39;14.1;;;5.5;;
49582;SDS011;36329;48.816;44.624;2023-04-07T16:31:41;17.3;;;5.7;;
49582;SDS011;36329;48.816;44.624;2023-04-07T16:34:43;21;;;4.6;;
49582;SDS011;36329;48.816;44.624;2023-04-07T16:37:46;16.8;;;3.8;;
49582;SDS011;36329;48.816;44.624;2023-04-07T16:40:47;16.2;;;4;;
49582;SDS011;36329;48.816;44.624;2023-04-07T16:43:49;8.3;;;3.2;;
49582;SDS011;36329;48.816;44.624;2023-04-07T16:46:51;10;;;3;;
49582;SDS011;36329;48.816;44.624;2023-04-07T16:49:53;10.6;;;3.2;;
49582;SDS011;36329;48.816;44.624;2023-04-07T16:52:55;13;;;3.6;;
49582;SDS011;36329;48.816;44.624;2023-04-07T16:55:57;8.8;;;2.9;;
49582;SDS011;36329;48.816;44.624;2023-04-07T16:58:59;11.1;;;3.3;;
49582;SDS011;36329;48.816;44.624;2023-04-07T17:02:05;11.1;;;3.8;;
49582;SDS011;36329;48.816;44.624;2023-04-07T17:05:08;11.4;;;3.3;;
49582;SDS011;36329;48.816;44.624;2023-04-07T17:08:10;8;;;3;;
49582;SDS011;36329;48.816;44.624;2023-04-07T17:11:12;8;;;3.5;;
49582;SDS011;36329;48.816;44.624;2023-04-07T17:14:14;13;;;3.3;;
49582;SDS011;36329;48.816;44.624;2023-04-07T17:17:16;10;;;3.1;;
49582;SDS011;36329;48.816;44.624;2023-04-07T17:20:18;11.1;;;2.7;;
49582;SDS011;36329;48.816;44.624;2023-04-07T17:23:20;9.1;;;3.2;;
49582;SDS011;36329;48.816;44.624;2023-04-07T17:26:22;10.6;;;3.9;;
49582;SDS011;36329;48.816;44.624;2023-04-07T17:29:25;13.1;;;4.6;;
49582;SDS011;36329;48.816;44.624;2023-04-07T17:32:27;8.5;;;3;;
49582;SDS011;36329;48.816;44.624;2023-04-07T17:35:29;11.7;;;2.9;;
49582;SDS011;36329;48.816;44.624;2023-04-07T17:38:31;10.6;;;2.8;;
49582;SDS011;36329;48.816;44.624;2023-04-07T17:41:33;13.2;;;3.6;;
49582;SDS011;36329;48.816;44.624;2023-04-07T17:44:35;11.4;;;2.7;;
49582;SDS011;36329;48.816;44.624;2023-04-07T17:47:37;8.6;;;2.8;;
49582;SDS011;36329;48.816;44.624;2023-04-07T17:50:40;11.1;;;2.8;;
49582;SDS011;36329;48.816;44.624;2023-04-07T17:53:42;12.9;;;3.1;;
49582;SDS011;36329;48.816;44.624;2023-04-07T17:56:44;12;;;2.9;;
49582;SDS011;36329;48.816;44.624;2023-04-07T17:59:46;6.5;;;2.7;;
49582;SDS011;36329;48.816;44.624;2023-04-07T18:02:48;8.9;;;2.7;;
49582;SDS011;36329;48.816;44.624;2023-04-07T18:05:51;8.3;;;2.7;;
49582;SDS011;36329;48.816;44.624;2023-04-07T18:08:53;7.9;;;2.4;;
49582;SDS011;36329;48.816;44.624;2023-04-07T18:11:55;8.7;;;3.4;;
49582;SDS011;36329;48.816;44.624;2023-04-07T18:14:57;8.6;;;2.5;;
49582;SDS011;36329;48.816;44.624;2023-04-07T18:17:59;8.4;;;2.4;;
49582;SDS011;36329;48.816;44.624;2023-04-07T18:21:03;14.5;;;2.9;;
49582;SDS011;36329;48.816;44.624;2023-04-07T18:24:05;5.3;;;2.3;;
49582;SDS011;36329;48.816;44.624;2023-04-07T18:27:07;7.5;;;2.5;;
49582;SDS011;36329;48.816;44.624;2023-04-07T18:30:09;9.4;;;2.6;;
49582;SDS011;36329;48.816;44.624;2023-04-07T18:33:11;9;;;2.7;;
49582;SDS011;36329;48.816;44.624;2023-04-07T18:36:13;7.8;;;2.5;;
49582;SDS011;36329;48.816;44.624;2023-04-07T18:39:15;7.4;;;2.6;;
49582;SDS011;36329;48.816;44.624;2023-04-07T18:42:17;8.6;;;3.2;;
49582;SDS011;36329;48.816;44.624;2023-04-07T18:45:19;6.6;;;2.5;;